Time;durP1;ratioP1;P1;durP2;ratioP2;P2;SDS_P1;SDS_P2;PMS_P1;PMS_P2;Temp;Humidity;BMP_temperature;BMP_pressure;BME280_temperature;BME280_humidity;BME280_pressure;Samples;Min_cycle;Max_cycle;Signal;HPM_P1;HPM_P2
2021/03/28 00:01:09;;;;;;;23.33;5.43;;;;;;;5.92;61.71;102544.16;4928631;28;20182;-71
2021/03/28 00:03:34;;;;;;;21.17;5.10;;;;;;;5.84;62.37;102540.22;4989182;28;20038;-70
2021/03/28 00:06:29;;;;;;;22.92;5.70;;;;;;;5.89;61.75;102534.41;4996675;28;20061;-70
2021/03/28 00:09:18;;;;;;;23.70;5.68;;;;;;;5.80;62.21;102536.56;5002805;28;20094;-70
2021/03/28 00:12:06;;;;;;;23.92;6.13;;;;;;;5.75;62.82;102538.97;4995846;28;20074;-70
2021/03/28 00:14:37;;;;;;;24.05;5.38;;;;;;;5.84;62.40;102541.16;4996346;28;20051;-70
2021/03/28 00:17:41;;;;;;;21.92;5.53;;;;;;;5.76;63.09;102545.09;5001593;28;20052;-70
2021/03/28 00:20:15;;;;;;;21.13;5.60;;;;;;;5.77;62.87;102544.28;5001851;28;20035;-70
2021/03/28 00:23:03;;;;;;;25.38;5.93;;;;;;;5.67;63.90;102550.78;5002284;28;20059;-70
2021/03/28 00:25:45;;;;;;;26.70;6.15;;;;;;;5.70;63.65;102552.66;5004324;28;20084;-70
2021/03/28 00:28:24;;;;;;;23.90;5.45;;;;;;;5.66;63.73;102543.72;5001785;28;20655;-70
2021/03/28 00:30:51;;;;;;;25.73;6.10;;;;;;;5.58;64.92;102543.34;5005751;28;20042;-70
2021/03/28 00:33:22;;;;;;;24.55;5.72;;;;;;;5.56;64.59;102536.19;5007847;28;20041;-70
2021/03/28 00:35:51;;;;;;;21.10;4.82;;;;;;;5.54;64.95;102537.84;5003079;28;20076;-70
2021/03/28 00:38:22;;;;;;;23.77;5.50;;;;;;;5.59;64.71;102528.47;5007218;28;20034;-70
2021/03/28 00:41:14;;;;;;;21.42;4.97;;;;;;;5.52;64.98;102528.97;4984029;28;20043;-70
2021/03/28 00:43:54;;;;;;;23.17;5.20;;;;;;;5.42;65.23;102530.25;4992944;28;20473;-70
2021/03/28 00:46:43;;;;;;;21.98;5.50;;;;;;;5.49;65.01;102524.50;4989396;28;20031;-70
2021/03/28 00:49:34;;;;;;;21.08;4.95;;;;;;;5.40;65.91;102530.16;4989020;28;20048;-70
2021/03/28 00:52:08;;;;;;;24.38;4.90;;;;;;;5.43;65.50;102524.16;4988654;28;20035;-70
2021/03/28 00:54:44;;;;;;;23.50;5.45;;;;;;;5.32;66.02;102518.38;4969261;28;20030;-70
2021/03/28 00:57:34;;;;;;;26.15;5.50;;;;;;;5.30;66.09;102512.16;4974864;28;20102;-70
2021/03/28 01:00:12;;;;;;;21.95;5.15;;;;;;;5.31;65.51;102507.78;4991126;28;20027;-70
2021/03/28 01:03:08;;;;;;;25.60;5.18;;;;;;;5.21;65.99;102515.19;5000288;28;20058;-70
2021/03/28 01:05:50;;;;;;;22.02;5.10;;;;;;;5.12;66.08;102509.44;5041937;28;20403;-70
2021/03/28 01:08:37;;;;;;;20.83;4.90;;;;;;;5.03;66.55;102522.06;4976750;28;20527;-70
2021/03/28 01:11:08;;;;;;;23.60;5.03;;;;;;;5.03;67.33;102517.72;4989067;28;20528;-70
2021/03/28 01:13:53;;;;;;;23.88;5.15;;;;;;;4.97;67.51;102512.16;4988796;28;20130;-71
2021/03/28 01:16:34;;;;;;;23.50;5.28;;;;;;;4.95;67.44;102513.81;5002861;28;20027;-70
2021/03/28 01:19:22;;;;;;;22.92;5.03;;;;;;;4.94;67.46;102506.75;4973385;28;20034;-70
2021/03/28 01:21:57;;;;;;;24.80;5.15;;;;;;;4.85;67.88;102512.41;4974470;28;20477;-70
2021/03/28 01:24:28;;;;;;;23.40;5.07;;;;;;;4.81;68.33;102512.16;4976842;28;20434;-69
2021/03/28 01:27:19;;;;;;;22.48;4.60;;;;;;;4.89;68.33;102502.97;5005871;28;20036;-70
2021/03/28 01:30:11;;;;;;;23.90;4.70;;;;;;;4.81;68.24;102494.69;4968473;28;20377;-70
2021/03/28 01:32:39;;;;;;;21.08;4.82;;;;;;;4.82;68.93;102496.50;5011952;28;20053;-70
2021/03/28 01:35:10;;;;;;;25.50;5.43;;;;;;;4.76;69.66;102493.56;5011266;28;20128;-70
2021/03/28 01:37:42;;;;;;;24.92;5.88;;;;;;;4.81;69.00;102491.19;5011555;28;20034;-70
2021/03/28 01:40:20;;;;;;;22.83;4.90;;;;;;;4.75;69.74;102498.69;5011239;28;20034;-70
2021/03/28 01:43:03;;;;;;;23.92;5.07;;;;;;;4.77;69.64;102497.97;5009568;28;20054;-70
2021/03/28 01:45:46;;;;;;;24.30;5.05;;;;;;;4.70;70.20;102494.13;5010938;28;20547;-69
2021/03/28 01:48:24;;;;;;;24.33;5.00;;;;;;;4.71;69.82;102487.16;5011371;28;20084;-70
2021/03/28 01:50:59;;;;;;;22.05;4.72;;;;;;;4.75;69.83;102488.22;5009835;28;20037;-70
2021/03/28 01:53:33;;;;;;;21.20;4.70;;;;;;;4.75;69.85;102481.28;5011416;28;20026;-70
2021/03/28 01:56:44;;;;;;;22.65;5.10;;;;;;;4.72;69.69;102478.50;5009823;28;20034;-70
2021/03/28 01:59:25;;;;;;;24.08;5.20;;;;;;;4.71;69.89;102480.19;4933915;29;20048;-70
2021/03/28 02:02:28;;;;;;;20.98;4.75;;;;;;;4.76;69.80;102472.59;4933981;29;20099;-70
2021/03/28 02:05:18;;;;;;;22.45;5.47;;;;;;;4.77;70.48;102463.91;4932806;29;20153;-70
2021/03/28 02:08:07;;;;;;;24.95;5.28;;;;;;;4.81;70.88;102463.25;4932513;29;20083;-70
2021/03/28 02:10:51;;;;;;;23.52;5.22;;;;;;;4.76;71.14;102464.75;4985954;28;20050;-70
2021/03/28 02:13:37;;;;;;;22.20;5.07;;;;;;;4.78;70.56;102460.47;4991539;28;20046;-70
2021/03/28 02:16:21;;;;;;;23.23;4.85;;;;;;;4.85;70.55;102465.22;4988649;28;20234;-70
2021/03/28 02:18:52;;;;;;;23.13;5.38;;;;;;;4.86;70.91;102460.88;4990184;28;20030;-70
2021/03/28 02:21:55;;;;;;;22.35;5.25;;;;;;;4.85;70.98;102464.34;4990405;28;20046;-70
2021/03/28 02:24:42;;;;;;;20.27;4.80;;;;;;;4.89;70.65;102469.81;4951516;29;20035;-70
2021/03/28 02:27:15;;;;;;;22.33;4.97;;;;;;;4.88;70.97;102473.25;4952704;29;20110;-70
2021/03/28 02:29:48;;;;;;;23.38;4.93;;;;;;;4.83;71.20;102471.19;4949476;29;20039;-70
2021/03/28 02:32:35;;;;;;;25.65;5.00;;;;;;;4.82;70.88;102469.38;4956359;28;20546;-70
2021/03/28 02:35:13;;;;;;;23.02;5.20;;;;;;;4.79;71.41;102475.38;4910969;28;20123;-70
2021/03/28 02:38:01;;;;;;;21.45;4.53;;;;;;;4.83;71.59;102471.19;4907436;28;20475;-70
2021/03/28 02:40:42;;;;;;;25.17;5.22;;;;;;;4.78;71.70;102472.69;4906860;28;20037;-70
2021/03/28 02:43:24;;;;;;;24.90;4.93;;;;;;;4.73;72.03;102467.16;4890835;28;20093;-70
2021/03/28 02:46:08;;;;;;;26.67;5.38;;;;;;;4.69;71.95;102468.75;4890318;28;20379;-70
2021/03/28 02:49:01;;;;;;;23.23;4.90;;;;;;;4.68;71.93;102472.16;4898927;28;20040;-70
2021/03/28 02:51:50;;;;;;;22.23;5.40;;;;;;;4.72;71.78;102473.25;4910522;28;20037;-70
2021/03/28 02:54:15;;;;;;;23.17;4.97;;;;;;;4.71;72.68;102471.44;4891236;28;20049;-70
2021/03/28 02:57:01;;;;;;;21.50;5.13;;;;;;;4.66;72.03;102463.34;4921572;28;20055;-70
2021/03/28 02:59:46;;;;;;;21.88;4.85;;;;;;;4.66;72.20;102460.72;4910542;28;20042;-70
2021/03/28 03:02:34;;;;;;;24.05;5.07;;;;;;;4.61;72.35;102458.66;4965387;28;20513;-70
2021/03/28 03:05:25;;;;;;;22.33;4.80;;;;;;;4.58;72.69;102454.16;4972405;28;20038;-70
2021/03/28 03:07:59;;;;;;;22.10;4.75;;;;;;;4.56;73.31;102449.63;4970296;28;20101;-70
2021/03/28 03:11:02;;;;;;;21.33;4.95;;;;;;;4.58;72.53;102451.53;4984949;28;20489;-70
2021/03/28 03:13:39;;;;;;;21.92;4.57;;;;;;;4.59;72.54;102455.03;4974895;28;20035;-71
2021/03/28 03:16:17;;;;;;;21.55;4.57;;;;;;;4.56;72.35;102460.09;4972769;28;20054;-70
2021/03/28 03:19:10;;;;;;;25.08;5.05;;;;;;;4.48;72.57;102455.34;4991391;28;20090;-70
2021/03/28 03:22:06;;;;;;;23.42;4.80;;;;;;;4.48;72.59;102457.09;4969951;28;20358;-70
2021/03/28 03:24:50;;;;;;;22.30;4.60;;;;;;;4.48;72.15;102463.22;4969569;28;20162;-70
2021/03/28 03:27:19;;;;;;;24.90;4.97;;;;;;;4.51;72.94;102459.88;5003387;28;20049;-70
2021/03/28 03:29:49;;;;;;;20.95;4.50;;;;;;;4.54;72.73;102449.56;5011596;28;20031;-69
2021/03/28 03:32:33;;;;;;;20.88;4.85;;;;;;;4.49;72.92;102454.53;5035992;28;20496;-70
2021/03/28 03:35:32;;;;;;;23.38;4.80;;;;;;;4.56;72.77;102461.03;4980855;28;20031;-70
2021/03/28 03:38:21;;;;;;;20.13;4.68;;;;;;;4.55;72.73;102464.47;4984495;28;20074;-70
2021/03/28 03:41:08;;;;;;;21.20;4.95;;;;;;;4.52;72.73;102462.56;5000411;28;20223;-70
2021/03/28 03:43:39;;;;;;;21.40;4.50;;;;;;;4.53;72.81;102459.13;4969539;28;20035;-70
2021/03/28 03:46:30;;;;;;;21.40;4.40;;;;;;;4.61;72.61;102462.16;4977557;28;20043;-70
2021/03/28 03:49:04;;;;;;;21.17;4.40;;;;;;;4.61;72.85;102463.91;5006149;28;20040;-70
2021/03/28 03:52:17;;;;;;;21.42;4.10;;;;;;;4.77;72.20;102456.03;5008197;28;20050;-70
2021/03/28 03:54:55;;;;;;;20.35;3.80;;;;;;;4.70;72.09;102459.16;4968937;28;20118;-70
2021/03/28 03:57:26;;;;;;;20.80;4.53;;;;;;;4.79;72.06;102470.16;4969694;28;20034;-70
2021/03/28 04:00:01;;;;;;;21.48;4.68;;;;;;;4.89;72.14;102459.34;4969995;28;20038;-70
2021/03/28 04:02:48;;;;;;;22.88;4.32;;;;;;;4.91;71.70;102464.66;4970063;28;20035;-71
2021/03/28 04:05:33;;;;;;;16.63;4.00;;;;;;;4.98;71.92;102471.09;4969316;28;20035;-70
2021/03/28 04:08:21;;;;;;;23.35;4.40;;;;;;;4.98;71.94;102460.63;4969993;28;20030;-70
2021/03/28 04:11:04;;;;;;;17.50;4.30;;;;;;;5.02;71.58;102459.97;4969725;28;20498;-70
2021/03/28 04:13:58;;;;;;;18.77;3.97;;;;;;;5.10;71.40;102463.91;4969443;28;20158;-70
2021/03/28 04:16:42;;;;;;;;;;;;;;;5.12;70.59;102464.88;4968816;28;20108;-70
2021/03/28 04:19:31;;;;;;;21.15;4.53;;;;;;;5.15;70.97;102470.28;4969214;28;19949;-70
2021/03/28 04:22:33;;;;;;;21.35;4.60;;;;;;;5.10;71.47;102470.84;4969674;28;21089;-70
2021/03/28 04:25:21;;;;;;;22.17;4.93;;;;;;;5.18;71.17;102466.91;4973544;28;20086;-69
2021/03/28 04:28:39;;;;;;;19.98;4.53;;;;;;;5.26;71.26;102469.94;5028684;28;20468;-70
2021/03/28 04:31:25;;;;;;;19.08;4.22;;;;;;;5.26;71.12;102465.59;4961506;28;20137;-70
2021/03/28 04:34:12;;;;;;;20.45;4.32;;;;;;;5.36;71.19;102456.50;4969274;28;20114;-70
2021/03/28 04:36:44;;;;;;;19.55;4.10;;;;;;;5.33;71.28;102462.47;4969734;28;20041;-70
2021/03/28 04:39:40;;;;;;;21.95;4.63;;;;;;;5.35;71.15;102458.19;4969799;28;20453;-69
2021/03/28 04:42:27;;;;;;;20.70;4.50;;;;;;;5.38;71.01;102462.72;4969332;28;20076;-71
2021/03/28 04:45:29;;;;;;;20.35;4.43;;;;;;;5.46;70.72;102468.34;4966730;28;20043;-70
2021/03/28 04:48:32;;;;;;;20.35;4.30;;;;;;;5.57;70.11;102452.31;4969589;28;20427;-70
2021/03/28 04:51:25;;;;;;;21.95;4.40;;;;;;;5.55;70.35;102453.09;4969941;28;20041;-70
2021/03/28 04:54:09;;;;;;;;;;;;;;;5.68;69.83;102444.09;4969794;28;20031;-70
2021/03/28 04:56:37;;;;;;;18.27;4.07;;;;;;;5.62;70.31;102439.47;4969109;28;20361;-71
2021/03/28 04:59:30;;;;;;;21.48;4.50;;;;;;;5.61;70.36;102436.72;4969354;28;20051;-70
2021/03/28 05:02:34;;;;;;;18.70;4.00;;;;;;;5.62;70.31;102439.47;4967943;28;20074;-71
2021/03/28 05:05:22;;;;;;;19.25;3.85;;;;;;;5.65;70.28;102430.81;4977839;28;20049;-70
2021/03/28 05:08:18;;;;;;;19.98;4.00;;;;;;;5.74;69.91;102452.28;5002885;28;20039;-70
2021/03/28 05:10:50;;;;;;;20.45;4.15;;;;;;;5.71;70.19;102449.50;4989333;28;20435;-70
2021/03/28 05:13:57;;;;;;;20.25;4.30;;;;;;;5.67;70.30;102439.69;4980824;28;20031;-70
2021/03/28 05:17:01;;;;;;;20.63;3.90;;;;;;;5.67;70.17;102445.81;4991769;28;20046;-70
2021/03/28 05:19:51;;;;;;;19.67;4.30;;;;;;;5.68;70.09;102442.38;4990258;28;20454;-70
2021/03/28 05:22:44;;;;;;;22.65;4.53;;;;;;;5.78;69.61;102441.09;4992064;28;20066;-70
2021/03/28 05:25:32;;;;;;;20.48;4.05;;;;;;;5.74;69.90;102445.31;4992140;28;20045;-71
2021/03/28 05:28:19;;;;;;;20.75;4.13;;;;;;;5.71;70.07;102441.63;4992295;28;20031;-71
2021/03/28 05:31:11;;;;;;;21.13;4.65;;;;;;;5.73;70.10;102439.97;4992167;28;20026;-71
2021/03/28 05:34:06;;;;;;;20.02;3.95;;;;;;;5.79;69.78;102450.78;4989877;28;20092;-71
2021/03/28 05:36:50;;;;;;;20.15;4.20;;;;;;;5.76;70.37;102445.38;4975816;28;20069;-70
2021/03/28 05:39:30;;;;;;;19.27;4.05;;;;;;;5.79;70.12;102440.28;4991797;28;20043;-71
2021/03/28 05:42:09;;;;;;;20.88;4.20;;;;;;;5.78;70.39;102441.09;4991949;28;20030;-74
2021/03/28 05:44:52;;;;;;;19.70;4.20;;;;;;;5.80;69.82;102442.09;4988605;28;20030;-73
2021/03/28 05:47:45;;;;;;;20.35;4.20;;;;;;;5.96;69.97;102443.75;4991768;28;20093;-72
2021/03/28 05:50:17;;;;;;;19.35;4.40;;;;;;;5.97;69.38;102434.13;4991636;28;20037;-71
2021/03/28 05:52:42;;;;;;;20.63;4.20;;;;;;;5.94;69.93;102429.63;4988365;28;20043;-72
2021/03/28 05:55:26;;;;;;;19.63;3.90;;;;;;;5.96;69.63;102433.25;4988591;28;20031;-70
2021/03/28 05:58:01;;;;;;;19.80;4.10;;;;;;;5.98;69.61;102433.34;5000172;28;20035;-71
2021/03/28 06:01:04;;;;;;;19.13;4.13;;;;;;;6.01;69.81;102438.75;4987601;28;20053;-71
2021/03/28 06:03:48;;;;;;;18.95;4.03;;;;;;;6.04;69.53;102441.50;4986414;28;20035;-71
2021/03/28 06:06:52;;;;;;;20.15;4.35;;;;;;;6.05;69.52;102432.81;4972549;28;20088;-70
2021/03/28 06:09:55;;;;;;;21.60;4.45;;;;;;;6.09;69.63;102433.03;4984426;28;20027;-70
2021/03/28 06:12:36;;;;;;;18.95;4.00;;;;;;;6.04;69.64;102439.81;4997483;28;20044;-70
2021/03/28 06:15:01;;;;;;;18.58;4.00;;;;;;;6.04;69.73;102431.94;4996142;28;20044;-70
2021/03/28 06:17:35;;;;;;;17.27;3.80;;;;;;;6.06;70.10;102432.00;4982864;28;20109;-70
2021/03/28 06:20:29;;;;;;;22.98;4.72;;;;;;;6.12;69.96;102440.16;4988100;28;20039;-70
2021/03/28 06:23:12;;;;;;;;;;;;;;;6.16;69.80;102436.88;4990339;28;20053;-70
2021/03/28 06:26:07;;;;;;;20.05;4.30;;;;;;;6.20;69.85;102428.28;4976083;28;19909;-69
2021/03/28 06:28:47;;;;;;;21.05;4.45;;;;;;;6.31;69.48;102425.28;4971055;28;20466;-70
2021/03/28 06:31:18;;;;;;;18.75;4.18;;;;;;;6.36;69.39;102434.28;4971854;28;20031;-70
2021/03/28 06:34:16;;;;;;;21.05;4.50;;;;;;;6.33;69.50;102439.38;4971495;28;20039;-70
2021/03/28 06:37:06;;;;;;;18.40;4.22;;;;;;;6.39;69.39;102444.91;4969416;28;20030;-70
2021/03/28 06:39:50;;;;;;;19.20;4.43;;;;;;;6.40;69.61;102449.34;4970846;28;20043;-70
2021/03/28 06:42:18;;;;;;;21.08;4.85;;;;;;;6.41;69.79;102448.53;4971353;28;20122;-71
2021/03/28 06:45:00;;;;;;;19.30;4.38;;;;;;;6.50;69.83;102454.22;4970831;28;20486;-69
2021/03/28 06:48:03;;;;;;;18.90;4.50;;;;;;;6.62;69.75;102446.88;4950137;28;20027;-70
2021/03/28 06:50:50;;;;;;;19.60;4.65;;;;;;;6.81;69.33;102445.09;4968273;28;20031;-70
2021/03/28 06:53:34;;;;;;;23.95;4.90;;;;;;;6.89;68.80;102446.34;4970719;28;20047;-70
2021/03/28 06:56:11;;;;;;;22.80;4.90;;;;;;;7.05;68.10;102449.66;4970785;28;20034;-70
2021/03/28 06:58:59;;;;;;;20.42;5.00;;;;;;;7.04;68.40;102448.75;4970551;28;20054;-70
2021/03/28 07:01:42;;;;;;;18.80;4.13;;;;;;;7.11;68.66;102455.19;4970504;28;20046;-70
2021/03/28 07:04:26;;;;;;;20.75;4.72;;;;;;;7.24;68.36;102462.78;4970380;28;20031;-71
2021/03/28 07:07:20;;;;;;;22.40;4.68;;;;;;;7.25;68.28;102464.59;4985021;28;20058;-71
2021/03/28 07:09:55;;;;;;;19.27;4.78;;;;;;;7.34;67.96;102450.94;4985517;28;20031;-71
2021/03/28 07:12:58;;;;;;;22.27;4.88;;;;;;;7.43;67.82;102463.59;4978910;28;20540;-70
2021/03/28 07:15:45;;;;;;;23.02;5.22;;;;;;;7.43;68.34;102446.06;4997057;28;20064;-70
2021/03/28 07:18:48;;;;;;;19.63;4.45;;;;;;;7.59;67.91;102449.38;4968981;28;20065;-70
2021/03/28 07:21:35;;;;;;;20.92;5.32;;;;;;;7.73;67.70;102449.94;5001434;28;20099;-70
2021/03/28 07:24:26;;;;;;;21.50;5.55;;;;;;;7.78;67.21;102446.66;4974126;28;20521;-70
2021/03/28 07:27:15;;;;;;;20.73;5.22;;;;;;;7.88;67.24;102461.09;4972596;28;20533;-70
2021/03/28 07:30:14;;;;;;;19.45;4.82;;;;;;;8.09;66.16;102461.06;4968571;28;20031;-70
2021/03/28 07:33:26;;;;;;;21.52;4.85;;;;;;;8.18;66.51;102463.16;4981853;28;20027;-70
2021/03/28 07:35:59;;;;;;;20.65;4.57;;;;;;;8.34;65.33;102481.41;4968231;28;20069;-70
2021/03/28 07:38:43;;;;;;;;;;;;;;;8.41;65.44;102465.81;4987205;28;20030;-70
2021/03/28 07:41:27;;;;;;;20.38;5.03;;;;;;;8.50;65.61;102476.75;4990634;28;20274;-70
2021/03/28 07:44:40;;;;;;;19.65;5.10;;;;;;;8.64;64.86;102477.31;4989269;28;20043;-70
2021/03/28 07:47:24;;;;;;;;;;;;;;;8.72;64.84;102478.47;4996986;28;20033;-70
2021/03/28 07:50:17;;;;;;;21.95;5.13;;;;;;;8.83;64.71;102470.97;4983152;28;19914;-70
2021/03/28 07:53:14;;;;;;;21.58;5.50;;;;;;;8.97;63.99;102460.94;4968730;28;20417;-70
2021/03/28 07:56:14;;;;;;;18.20;4.10;;;;;;;9.05;63.44;102478.81;5007313;28;20038;-70
2021/03/28 07:59:04;;;;;;;22.25;5.28;;;;;;;9.18;63.24;102469.63;5009123;28;20034;-71
2021/03/28 08:01:37;;;;;;;23.17;5.25;;;;;;;9.01;63.73;102470.75;5004178;28;20041;-73
2021/03/28 08:04:44;;;;;;;21.08;5.35;;;;;;;9.00;63.41;102479.50;5006649;28;20076;-71
2021/03/28 08:07:37;;;;;;;20.83;5.03;;;;;;;9.06;63.32;102470.06;5009038;28;20394;-71
2021/03/28 08:10:24;;;;;;;;;;;;;;;9.16;62.81;102470.41;5008686;28;20030;-72
2021/03/28 08:13:02;;;;;;;19.67;4.80;;;;;;;9.13;63.38;102462.38;5007484;28;19917;-71
2021/03/28 08:16:05;;;;;;;22.17;5.47;;;;;;;9.23;63.39;102467.13;5007795;28;20038;-71
2021/03/28 08:18:55;;;;;;;21.30;5.10;;;;;;;9.39;62.61;102451.03;5006596;28;20033;-70
2021/03/28 08:21:42;;;;;;;21.77;5.13;;;;;;;9.51;62.50;102462.81;5006593;28;20524;-70
2021/03/28 08:24:35;;;;;;;18.35;4.55;;;;;;;9.58;61.68;102465.75;5008455;28;20076;-70
2021/03/28 08:27:07;;;;;;;17.17;4.22;;;;;;;9.59;62.00;102466.63;4992911;28;20038;-69
2021/03/28 08:29:54;;;;;;;19.83;4.88;;;;;;;9.86;61.51;102465.75;4982739;28;20048;-68
2021/03/28 08:33:00;;;;;;;22.75;5.00;;;;;;;9.91;60.24;102475.63;4986908;28;20134;-70
2021/03/28 08:35:51;;;;;;;20.23;4.63;;;;;;;10.18;60.52;102468.56;4967533;28;20027;-72
2021/03/28 08:38:41;;;;;;;20.27;4.70;;;;;;;10.35;60.02;102475.31;4973945;28;20023;-71
2021/03/28 08:41:40;;;;;;;21.85;4.93;;;;;;;10.60;59.50;102476.97;5024427;28;20550;-70
2021/03/28 08:44:18;;;;;;;22.50;5.43;;;;;;;10.36;59.53;102466.53;5001444;28;20034;-70
2021/03/28 08:47:06;;;;;;;21.90;4.70;;;;;;;10.59;58.21;102491.03;4972138;28;20019;-70
2021/03/28 08:49:59;;;;;;;21.60;4.65;;;;;;;10.80;57.91;102461.69;4986208;28;20037;-70
2021/03/28 08:52:57;;;;;;;21.98;4.45;;;;;;;11.07;58.00;102468.63;4989076;28;20028;-70
2021/03/28 08:56:09;;;;;;;22.02;4.60;;;;;;;11.28;56.93;102468.31;4987403;28;20121;-70
2021/03/28 08:58:48;;;;;;;20.90;4.25;;;;;;;11.91;55.96;102474.38;4971457;28;20482;-73
2021/03/28 09:01:35;;;;;;;21.38;4.38;;;;;;;12.08;54.35;102474.78;4991235;28;20034;-71
2021/03/28 09:04:18;;;;;;;22.40;4.43;;;;;;;12.09;51.92;102479.25;4985384;28;20062;-72
2021/03/28 09:06:50;;;;;;;21.05;4.25;;;;;;;12.09;53.26;102457.16;4985409;28;20057;-71
2021/03/28 09:09:33;;;;;;;21.27;3.92;;;;;;;11.92;53.47;102456.69;4987918;28;20068;-69
2021/03/28 09:12:22;;;;;;;21.55;4.20;;;;;;;12.00;52.84;102450.75;4993371;28;20060;-71
2021/03/28 09:15:03;;;;;;;19.00;3.97;;;;;;;12.25;50.62;102450.44;5036492;28;20410;-71
2021/03/28 09:17:48;;;;;;;14.18;3.38;;;;;;;12.73;49.67;102447.06;4986757;28;20050;-71
2021/03/28 09:20:50;;;;;;;19.58;3.60;;;;;;;12.86;50.57;102451.75;4982499;28;20473;-69
2021/03/28 09:23:36;;;;;;;18.27;3.63;;;;;;;13.40;46.77;102457.25;4982755;28;20027;-68
2021/03/28 09:26:27;;;;;;;16.73;3.25;;;;;;;13.32;45.59;102466.78;4992033;28;20081;-67
2021/03/28 09:28:58;;;;;;;20.27;3.63;;;;;;;12.53;47.68;102454.59;4992150;28;20034;-68
2021/03/28 09:31:38;;;;;;;18.58;3.30;;;;;;;12.59;46.01;102473.28;4992099;28;20080;-68
2021/03/28 09:34:41;;;;;;;17.98;3.30;;;;;;;12.65;45.33;102459.28;4989529;28;20116;-70
2021/03/28 09:37:51;;;;;;;19.73;3.20;;;;;;;12.86;45.65;102469.47;4899237;29;20036;-69
2021/03/28 09:40:27;;;;;;;18.90;3.33;;;;;;;12.99;44.77;102471.50;4900502;29;20047;-69
2021/03/28 09:42:58;;;;;;;15.88;2.90;;;;;;;13.22;44.38;102463.06;4899758;29;20044;-68
2021/03/28 09:45:56;;;;;;;16.35;2.92;;;;;;;13.45;43.51;102466.19;4901276;29;20037;-68
2021/03/28 09:48:39;;;;;;;16.52;3.08;;;;;;;13.90;42.82;102469.63;4866255;29;20500;-67
2021/03/28 09:51:46;;;;;;;14.43;2.92;;;;;;;14.40;40.75;102487.22;4867180;29;20520;-67
2021/03/28 09:54:16;;;;;;;18.63;3.30;;;;;;;13.89;42.30;102473.13;4795690;29;20063;-68
2021/03/28 09:57:15;;;;;;;14.77;3.05;;;;;;;13.79;40.97;102469.44;4791892;29;20051;-68
2021/03/28 10:00:08;;;;;;;17.63;2.85;;;;;;;12.69;41.63;102487.66;4794792;29;20038;-68
2021/03/28 10:03:11;;;;;;;14.65;2.92;;;;;;;12.75;41.30;102482.47;4796298;29;20077;-67
2021/03/28 10:05:38;;;;;;;16.17;3.00;;;;;;;12.70;41.17;102489.47;4795936;29;20051;-67
2021/03/28 10:08:09;;;;;;;13.80;3.10;;;;;;;13.19;41.66;102469.25;4795495;29;20051;-68
2021/03/28 10:10:40;;;;;;;18.58;3.10;;;;;;;13.54;41.80;102487.63;4796024;29;20027;-67
2021/03/28 10:13:05;;;;;;;16.85;2.97;;;;;;;13.89;39.96;102483.78;4808336;29;20048;-68
2021/03/28 10:15:32;;;;;;;12.52;3.00;;;;;;;14.05;39.28;102491.16;4876767;29;20560;-67
2021/03/28 10:18:27;;;;;;;18.05;3.38;;;;;;;13.79;39.78;102482.75;4877156;29;20044;-70
2021/03/28 10:21:06;;;;;;;16.05;3.35;;;;;;;13.24;39.83;102480.81;4876903;29;20102;-70
2021/03/28 10:23:44;;;;;;;16.27;2.80;;;;;;;13.31;42.22;102480.94;4876620;29;20037;-71
2021/03/28 10:26:36;;;;;;;15.27;3.13;;;;;;;12.89;41.94;102482.78;4970396;28;20401;-68
2021/03/28 10:29:28;;;;;;;15.60;2.95;;;;;;;13.00;42.17;102483.00;4968513;28;20122;-69
2021/03/28 10:32:07;;;;;;;14.88;2.90;;;;;;;13.34;41.72;102483.66;4970994;28;20374;-70
2021/03/28 10:34:59;;;;;;;13.68;3.00;;;;;;;13.17;42.16;102478.91;5005861;28;20062;-71
2021/03/28 10:38:05;;;;;;;16.92;3.50;;;;;;;13.29;42.44;102477.38;5012058;28;20493;-69
2021/03/28 10:40:41;;;;;;;14.48;3.10;;;;;;;13.22;42.29;102481.66;4958321;28;20051;-68
2021/03/28 10:43:18;;;;;;;20.15;3.70;;;;;;;13.48;42.78;102498.13;4958919;28;20039;-68
2021/03/28 10:46:08;;;;;;;16.80;3.20;;;;;;;13.57;42.75;102485.03;4952655;28;20034;-70
2021/03/28 10:49:04;;;;;;;14.52;3.10;;;;;;;13.73;42.39;102495.91;4955414;28;20042;-69
2021/03/28 10:52:06;;;;;;;18.00;3.38;;;;;;;13.30;42.90;102484.47;4958495;28;20039;-68
2021/03/28 10:54:49;;;;;;;16.98;3.03;;;;;;;13.72;43.69;102499.44;4958099;28;20057;-68
2021/03/28 10:57:33;;;;;;;17.70;3.03;;;;;;;13.78;42.97;102497.78;4961270;28;20176;-69
2021/03/28 11:00:17;;;;;;;17.45;3.28;;;;;;;13.67;43.82;102494.03;4957673;28;20038;-68
2021/03/28 11:03:01;;;;;;;18.98;3.30;;;;;;;13.48;42.98;102482.19;4959642;28;20051;-68
2021/03/28 11:05:57;;;;;;;17.67;3.10;;;;;;;13.85;44.00;102485.50;4957151;28;20042;-71
2021/03/28 11:08:27;;;;;;;17.10;3.30;;;;;;;14.43;42.77;102479.28;4960537;28;20518;-70
2021/03/28 11:10:52;;;;;;;18.85;3.50;;;;;;;14.25;43.59;102488.78;4953555;28;20055;-71
2021/03/28 11:13:20;;;;;;;16.13;3.05;;;;;;;13.61;42.88;102485.97;4965333;28;20126;-70
2021/03/28 11:15:59;;;;;;;19.58;3.20;;;;;;;13.30;44.03;102493.31;4975337;28;20436;-70
2021/03/28 11:18:49;;;;;;;16.45;3.30;;;;;;;13.03;44.11;102483.97;4972254;28;20035;-71
2021/03/28 11:21:38;;;;;;;15.70;3.28;;;;;;;12.78;45.53;102497.59;4972459;28;20109;-71
2021/03/28 11:24:16;;;;;;;16.67;3.30;;;;;;;12.76;46.30;102478.97;4976648;28;20482;-71
2021/03/28 11:27:23;;;;;;;16.77;3.50;;;;;;;13.05;44.49;102500.81;4969272;28;20273;-69
2021/03/28 11:30:08;;;;;;;20.15;3.50;;;;;;;12.80;45.19;102496.75;5026282;28;20432;-70
2021/03/28 11:33:11;;;;;;;16.83;3.63;;;;;;;12.65;46.61;102501.72;5029337;28;20128;-70
2021/03/28 11:35:43;;;;;;;18.23;3.67;;;;;;;12.63;47.30;102506.09;5028270;28;20121;-70
2021/03/28 11:38:17;;;;;;;16.70;3.30;;;;;;;12.53;47.10;102502.34;5028914;28;20091;-70
2021/03/28 11:40:45;;;;;;;19.85;3.38;;;;;;;12.58;47.03;102502.44;5028368;28;20076;-70
2021/03/28 11:43:11;;;;;;;16.70;3.13;;;;;;;12.55;46.30;102496.22;5029158;28;20029;-70
2021/03/28 11:45:46;;;;;;;13.80;2.90;;;;;;;12.58;47.13;102491.84;5028495;28;20036;-70
2021/03/28 11:48:33;;;;;;;17.55;3.67;;;;;;;12.20;48.37;102496.31;5029025;28;20447;-70
2021/03/28 11:51:21;;;;;;;18.13;3.45;;;;;;;12.21;48.42;102497.19;5027476;28;20083;-70
2021/03/28 11:53:54;;;;;;;17.58;3.38;;;;;;;12.14;48.55;102493.47;5027731;28;20460;-70
2021/03/28 11:56:49;;;;;;;18.35;3.75;;;;;;;12.22;48.59;102496.34;5025026;28;20034;-70
2021/03/28 11:59:22;;;;;;;18.10;3.35;;;;;;;12.27;47.49;102493.78;5028188;28;20403;-70
2021/03/28 12:02:00;;;;;;;14.38;2.95;;;;;;;12.31;47.17;102488.59;5028363;28;20037;-70
2021/03/28 12:04:31;;;;;;;17.77;3.30;;;;;;;12.14;47.31;102488.19;5026988;28;20431;-71
2021/03/28 12:07:12;;;;;;;14.50;2.78;;;;;;;12.13;47.85;102506.69;4996604;28;20502;-71
2021/03/28 12:09:38;;;;;;;16.52;3.15;;;;;;;12.09;47.53;102494.25;4981531;28;20100;-71
2021/03/28 12:12:32;;;;;;;19.45;3.30;;;;;;;12.05;48.17;102493.28;4972889;28;20493;-71
2021/03/28 12:15:42;;;;;;;18.38;3.35;;;;;;;12.10;48.03;102502.25;5001299;28;20047;-71
2021/03/28 12:18:23;;;;;;;15.63;3.17;;;;;;;12.26;47.80;102490.25;4988782;28;20049;-71
2021/03/28 12:21:03;;;;;;;17.45;3.30;;;;;;;12.20;48.42;102503.34;4988864;28;20069;-70
2021/03/28 12:23:44;;;;;;;17.20;3.35;;;;;;;11.84;48.48;102510.41;4992595;28;20049;-70
2021/03/28 12:26:32;;;;;;;17.23;3.60;;;;;;;11.89;49.48;102501.69;4986175;28;20166;-70
2021/03/28 12:29:02;;;;;;;19.13;3.58;;;;;;;12.03;49.93;102503.84;4988969;28;20038;-71
2021/03/28 12:31:27;;;;;;;19.70;3.80;;;;;;;12.12;48.75;102497.88;4987719;28;20117;-71
2021/03/28 12:34:08;;;;;;;18.45;3.42;;;;;;;12.35;48.24;102497.53;4988792;28;20126;-71
2021/03/28 12:36:50;;;;;;;16.73;3.22;;;;;;;12.37;48.41;102486.06;4988460;28;20027;-70
2021/03/28 12:39:22;;;;;;;18.73;3.60;;;;;;;12.47;47.25;102489.84;4989200;28;20101;-71
2021/03/28 12:42:02;;;;;;;17.27;3.40;;;;;;;12.58;47.67;102475.91;4988791;28;20476;-71
2021/03/28 12:44:38;;;;;;;18.17;3.58;;;;;;;12.69;47.83;102492.97;4988062;28;20031;-70
2021/03/28 12:47:21;;;;;;;17.08;3.50;;;;;;;12.58;48.02;102483.88;4987361;28;20134;-71